This is the latest recevied weather packets stored in our database for station/object IR1ZYZ-3. If no packets are shown the sender has not sent any weather packets the latest 10 day(s).
| Time | Temp. | Humidity | Pressure | Rain* | Wind** | Luminosity | Snow |
|---|---|---|---|---|---|---|---|
| 1778163034 | 27.22° C | 50% | 1013.2 hPa | - | - | - | - |
| 1778162429 | 26.11° C | 50% | 1013.4 hPa | - | - | - | - |
| 1778161824 | 27.78° C | 47% | 1013.3 hPa | - | - | - | - |
| 1778161218 | 26.11° C | 54% | 1013.5 hPa | - | - | - | - |
| 1778160613 | 26.11° C | 59% | 1013.7 hPa | - | - | - | - |
| 1778160008 | 23.33° C | 56% | 1014.2 hPa | - | - | - | - |
| 1778159403 | 26.67° C | 56% | 1013.8 hPa | - | - | - | - |
| 1778158798 | 22.22° C | 65% | 1014.3 hPa | - | - | - | - |
| 1778158193 | 27.22° C | 53% | 1013.6 hPa | - | - | - | - |
| 1778157587 | 28.33° C | 53% | 1013.5 hPa | - | - | - | - |
| 1778156982 | 27.22° C | 55% | 1013.5 hPa | - | - | - | - |
| 1778156376 | 28.33° C | 61% | 1013.3 hPa | - | - | - | - |
| 1778155771 | 27.22° C | 58% | 1013.3 hPa | - | - | - | - |
| 1778155167 | 26.11° C | 62% | 1013.5 hPa | - | - | - | - |
| 1778154561 | 25.56° C | 62% | 1013.5 hPa | - | - | - | - |
| 1778153956 | 26.11° C | 62% | 1013.5 hPa | - | - | - | - |
| 1778153351 | 26.67° C | 66% | 1013.4 hPa | - | - | - | - |
| 1778152746 | 25.56° C | 70% | 1013.8 hPa | - | - | - | - |
| 1778152140 | 25° C | 73% | 1013.9 hPa | - | - | - | - |
| 1778152140 | 25° C | 73% | 1013.9 hPa | - | - | - | - |
| 1778151534 | 25° C | 70% | 1013.8 hPa | - | - | - | - |
| 1778150929 | 24.44° C | 74% | 1013.9 hPa | - | - | - | - |
| 1778150324 | 24.44° C | 75% | 1014.1 hPa | - | - | - | - |
| 1778149719 | 22.78° C | 77% | 1014.1 hPa | - | - | - | - |
| 1778149113 | 22.78° C | 85% | 1014.1 hPa | - | - | - | - |
* Rain since midnight (hover to see other rain measurements)
** Current wind speed in m/s (hover to see current wind gust speed)